sensor_id;sensor_type;location;lat;lon;timestamp;temperature;humidity
6164;DHT22;3114;48.362;10.994;2023-05-14T00:01:19;12.80;99.90
6164;DHT22;3114;48.362;10.994;2023-05-14T00:03:46;12.80;99.90
6164;DHT22;3114;48.362;10.994;2023-05-14T00:06:14;12.90;99.90
6164;DHT22;3114;48.362;10.994;2023-05-14T00:08:41;13.00;99.90
6164;DHT22;3114;48.362;10.994;2023-05-14T00:11:08;12.90;99.90
6164;DHT22;3114;48.362;10.994;2023-05-14T00:13:35;12.80;99.90
6164;DHT22;3114;48.362;10.994;2023-05-14T00:16:02;12.80;99.90
6164;DHT22;3114;48.362;10.994;2023-05-14T00:18:29;12.70;99.90
6164;DHT22;3114;48.362;10.994;2023-05-14T00:20:56;12.70;99.90
6164;DHT22;3114;48.362;10.994;2023-05-14T00:23:24;12.70;99.90
6164;DHT22;3114;48.362;10.994;2023-05-14T00:25:51;12.70;99.90
6164;DHT22;3114;48.362;10.994;2023-05-14T00:28:17;12.80;99.90
6164;DHT22;3114;48.362;10.994;2023-05-14T00:30:44;12.90;99.90
6164;DHT22;3114;48.362;10.994;2023-05-14T00:33:12;12.90;99.90
6164;DHT22;3114;48.362;10.994;2023-05-14T00:35:38;12.80;99.90
6164;DHT22;3114;48.362;10.994;2023-05-14T00:38:05;12.70;99.90
6164;DHT22;3114;48.362;10.994;2023-05-14T00:40:33;12.70;99.90
6164;DHT22;3114;48.362;10.994;2023-05-14T00:43:00;12.70;99.90
6164;DHT22;3114;48.362;10.994;2023-05-14T00:45:28;12.60;99.90
6164;DHT22;3114;48.362;10.994;2023-05-14T00:47:55;12.70;99.90
6164;DHT22;3114;48.362;10.994;2023-05-14T00:50:22;12.70;99.90
6164;DHT22;3114;48.362;10.994;2023-05-14T00:52:49;12.70;99.90
6164;DHT22;3114;48.362;10.994;2023-05-14T00:55:16;12.70;99.90
6164;DHT22;3114;48.362;10.994;2023-05-14T00:57:45;12.80;99.90
6164;DHT22;3114;48.362;10.994;2023-05-14T01:00:12;12.80;99.90
6164;DHT22;3114;48.362;10.994;2023-05-14T01:02:39;12.80;99.90
6164;DHT22;3114;48.362;10.994;2023-05-14T01:05:07;12.80;99.90
6164;DHT22;3114;48.362;10.994;2023-05-14T01:07:42;12.80;99.90
6164;DHT22;3114;48.362;10.994;2023-05-14T01:10:14;12.70;99.90
6164;DHT22;3114;48.362;10.994;2023-05-14T01:13:01;12.70;99.90
6164;DHT22;3114;48.362;10.994;2023-05-14T01:15:30;12.70;99.90
6164;DHT22;3114;48.362;10.994;2023-05-14T01:18:00;12.80;99.90
6164;DHT22;3114;48.362;10.994;2023-05-14T01:20:29;12.80;99.90
6164;DHT22;3114;48.362;10.994;2023-05-14T01:22:57;12.80;99.90
6164;DHT22;3114;48.362;10.994;2023-05-14T01:25:24;12.90;99.90
6164;DHT22;3114;48.362;10.994;2023-05-14T01:27:56;12.80;99.90
6164;DHT22;3114;48.362;10.994;2023-05-14T01:30:29;12.80;99.90
6164;DHT22;3114;48.362;10.994;2023-05-14T01:33:00;12.80;99.90
6164;DHT22;3114;48.362;10.994;2023-05-14T01:35:29;12.80;99.90
6164;DHT22;3114;48.362;10.994;2023-05-14T01:38:00;13.20;99.90
6164;DHT22;3114;48.362;10.994;2023-05-14T01:40:27;12.80;99.90
6164;DHT22;3114;48.362;10.994;2023-05-14T01:42:54;12.80;99.90
6164;DHT22;3114;48.362;10.994;2023-05-14T01:45:22;12.80;99.90
6164;DHT22;3114;48.362;10.994;2023-05-14T01:47:50;12.80;99.90
6164;DHT22;3114;48.362;10.994;2023-05-14T01:50:17;12.80;99.90
6164;DHT22;3114;48.362;10.994;2023-05-14T01:52:44;12.80;99.90
6164;DHT22;3114;48.362;10.994;2023-05-14T01:55:14;12.90;99.90
6164;DHT22;3114;48.362;10.994;2023-05-14T01:57:42;12.80;99.90
6164;DHT22;3114;48.362;10.994;2023-05-14T02:00:10;12.70;99.90
6164;DHT22;3114;48.362;10.994;2023-05-14T02:02:37;12.80;99.90
6164;DHT22;3114;48.362;10.994;2023-05-14T02:05:05;12.80;99.90
6164;DHT22;3114;48.362;10.994;2023-05-14T02:07:31;12.90;99.90
6164;DHT22;3114;48.362;10.994;2023-05-14T02:09:58;12.80;99.90
6164;DHT22;3114;48.362;10.994;2023-05-14T02:12:26;12.90;99.90
6164;DHT22;3114;48.362;10.994;2023-05-14T02:14:53;13.00;99.90
6164;DHT22;3114;48.362;10.994;2023-05-14T02:17:20;12.90;99.90
6164;DHT22;3114;48.362;10.994;2023-05-14T02:19:47;12.90;99.90
6164;DHT22;3114;48.362;10.994;2023-05-14T02:22:14;12.90;99.90
6164;DHT22;3114;48.362;10.994;2023-05-14T02:24:41;12.90;99.90
6164;DHT22;3114;48.362;10.994;2023-05-14T02:27:07;12.70;99.90
6164;DHT22;3114;48.362;10.994;2023-05-14T02:29:38;12.80;99.90
6164;DHT22;3114;48.362;10.994;2023-05-14T02:32:05;12.80;99.90
6164;DHT22;3114;48.362;10.994;2023-05-14T02:34:33;12.80;99.90
6164;DHT22;3114;48.362;10.994;2023-05-14T02:37:00;12.80;99.90
6164;DHT22;3114;48.362;10.994;2023-05-14T02:39:27;12.80;99.90
6164;DHT22;3114;48.362;10.994;2023-05-14T02:41:54;12.70;99.90
6164;DHT22;3114;48.362;10.994;2023-05-14T02:44:21;12.70;99.90
6164;DHT22;3114;48.362;10.994;2023-05-14T02:46:49;12.70;99.90
6164;DHT22;3114;48.362;10.994;2023-05-14T02:49:16;12.80;99.90
6164;DHT22;3114;48.362;10.994;2023-05-14T02:51:42;12.80;99.90
6164;DHT22;3114;48.362;10.994;2023-05-14T02:54:09;12.80;99.90
6164;DHT22;3114;48.362;10.994;2023-05-14T02:56:36;12.70;99.90
6164;DHT22;3114;48.362;10.994;2023-05-14T02:59:03;12.50;99.90
6164;DHT22;3114;48.362;10.994;2023-05-14T03:01:30;12.40;99.90
6164;DHT22;3114;48.362;10.994;2023-05-14T03:03:58;12.40;99.90
6164;DHT22;3114;48.362;10.994;2023-05-14T03:06:25;12.40;99.90
6164;DHT22;3114;48.362;10.994;2023-05-14T03:08:52;12.40;99.90
6164;DHT22;3114;48.362;10.994;2023-05-14T03:11:19;12.30;99.90
6164;DHT22;3114;48.362;10.994;2023-05-14T03:13:48;12.20;99.90
6164;DHT22;3114;48.362;10.994;2023-05-14T03:16:15;12.30;99.90
6164;DHT22;3114;48.362;10.994;2023-05-14T03:18:42;12.30;99.90
6164;DHT22;3114;48.362;10.994;2023-05-14T03:21:10;12.30;99.90
6164;DHT22;3114;48.362;10.994;2023-05-14T03:23:37;12.30;99.90
6164;DHT22;3114;48.362;10.994;2023-05-14T03:26:04;12.40;99.90
6164;DHT22;3114;48.362;10.994;2023-05-14T03:28:31;12.30;99.90
6164;DHT22;3114;48.362;10.994;2023-05-14T03:31:00;12.20;99.90
6164;DHT22;3114;48.362;10.994;2023-05-14T03:33:28;12.80;99.90
6164;DHT22;3114;48.362;10.994;2023-05-14T03:35:55;12.40;99.90
6164;DHT22;3114;48.362;10.994;2023-05-14T03:38:23;12.30;99.90
6164;DHT22;3114;48.362;10.994;2023-05-14T03:40:50;12.40;99.90
6164;DHT22;3114;48.362;10.994;2023-05-14T03:43:17;12.30;99.90
6164;DHT22;3114;48.362;10.994;2023-05-14T03:45:44;12.20;99.90
6164;DHT22;3114;48.362;10.994;2023-05-14T03:48:11;12.10;99.90
6164;DHT22;3114;48.362;10.994;2023-05-14T03:50:38;12.20;99.90
6164;DHT22;3114;48.362;10.994;2023-05-14T03:53:05;12.30;99.90
6164;DHT22;3114;48.362;10.994;2023-05-14T03:55:33;12.30;99.90
6164;DHT22;3114;48.362;10.994;2023-05-14T03:58:01;12.40;99.90
6164;DHT22;3114;48.362;10.994;2023-05-14T04:00:30;12.40;99.90
6164;DHT22;3114;48.362;10.994;2023-05-14T04:02:57;12.30;99.90
6164;DHT22;3114;48.362;10.994;2023-05-14T04:05:24;12.40;99.90
6164;DHT22;3114;48.362;10.994;2023-05-14T04:07:51;12.40;99.90
6164;DHT22;3114;48.362;10.994;2023-05-14T04:10:18;12.30;99.90
6164;DHT22;3114;48.362;10.994;2023-05-14T04:12:46;12.40;99.90
6164;DHT22;3114;48.362;10.994;2023-05-14T04:15:13;12.30;99.90
6164;DHT22;3114;48.362;10.994;2023-05-14T04:17:41;12.30;99.90
6164;DHT22;3114;48.362;10.994;2023-05-14T04:20:09;12.40;99.90
6164;DHT22;3114;48.362;10.994;2023-05-14T04:22:36;12.50;99.90
6164;DHT22;3114;48.362;10.994;2023-05-14T04:25:03;12.50;99.90
6164;DHT22;3114;48.362;10.994;2023-05-14T04:27:32;12.50;99.90
6164;DHT22;3114;48.362;10.994;2023-05-14T04:30:00;12.50;99.90
6164;DHT22;3114;48.362;10.994;2023-05-14T04:32:29;12.50;99.90
6164;DHT22;3114;48.362;10.994;2023-05-14T04:34:56;12.50;99.90
6164;DHT22;3114;48.362;10.994;2023-05-14T04:37:23;12.60;99.90
6164;DHT22;3114;48.362;10.994;2023-05-14T04:39:50;12.70;99.90
6164;DHT22;3114;48.362;10.994;2023-05-14T04:42:17;12.60;99.90
6164;DHT22;3114;48.362;10.994;2023-05-14T04:44:44;12.70;99.90
6164;DHT22;3114;48.362;10.994;2023-05-14T04:47:12;12.60;99.90
6164;DHT22;3114;48.362;10.994;2023-05-14T04:49:39;12.80;99.90
6164;DHT22;3114;48.362;10.994;2023-05-14T04:52:07;12.70;99.90
6164;DHT22;3114;48.362;10.994;2023-05-14T04:54:34;12.80;99.90
6164;DHT22;3114;48.362;10.994;2023-05-14T04:57:00;12.80;99.90
6164;DHT22;3114;48.362;10.994;2023-05-14T04:59:28;12.80;99.90
6164;DHT22;3114;48.362;10.994;2023-05-14T05:01:54;13.30;99.90
6164;DHT22;3114;48.362;10.994;2023-05-14T05:04:23;12.80;99.90
6164;DHT22;3114;48.362;10.994;2023-05-14T05:06:50;12.90;99.90
6164;DHT22;3114;48.362;10.994;2023-05-14T05:09:17;12.90;99.90
6164;DHT22;3114;48.362;10.994;2023-05-14T05:11:44;12.80;99.90
6164;DHT22;3114;48.362;10.994;2023-05-14T05:14:11;12.70;99.90
6164;DHT22;3114;48.362;10.994;2023-05-14T05:16:38;12.70;99.90
6164;DHT22;3114;48.362;10.994;2023-05-14T05:19:05;12.70;99.90
6164;DHT22;3114;48.362;10.994;2023-05-14T05:21:33;12.70;99.90
6164;DHT22;3114;48.362;10.994;2023-05-14T05:24:00;12.70;99.90
6164;DHT22;3114;48.362;10.994;2023-05-14T05:26:27;12.90;99.90
6164;DHT22;3114;48.362;10.994;2023-05-14T05:28:54;12.80;99.90
6164;DHT22;3114;48.362;10.994;2023-05-14T05:31:21;12.80;99.90
6164;DHT22;3114;48.362;10.994;2023-05-14T05:33:48;12.80;99.90
6164;DHT22;3114;48.362;10.994;2023-05-14T05:36:15;12.70;99.90
6164;DHT22;3114;48.362;10.994;2023-05-14T05:38:43;12.80;99.90
6164;DHT22;3114;48.362;10.994;2023-05-14T05:41:10;12.80;99.90
6164;DHT22;3114;48.362;10.994;2023-05-14T05:43:37;12.80;99.90
6164;DHT22;3114;48.362;10.994;2023-05-14T05:46:04;12.90;99.90
6164;DHT22;3114;48.362;10.994;2023-05-14T05:48:31;12.90;99.90
6164;DHT22;3114;48.362;10.994;2023-05-14T05:50:57;12.90;99.90
6164;DHT22;3114;48.362;10.994;2023-05-14T05:53:24;12.90;99.90
6164;DHT22;3114;48.362;10.994;2023-05-14T05:55:53;12.90;99.90
6164;DHT22;3114;48.362;10.994;2023-05-14T05:58:20;13.00;99.90
6164;DHT22;3114;48.362;10.994;2023-05-14T06:00:46;13.00;99.90
6164;DHT22;3114;48.362;10.994;2023-05-14T06:03:13;12.90;99.90
6164;DHT22;3114;48.362;10.994;2023-05-14T06:05:40;12.90;99.90
6164;DHT22;3114;48.362;10.994;2023-05-14T06:08:07;12.80;99.90
6164;DHT22;3114;48.362;10.994;2023-05-14T06:10:34;12.80;99.90
6164;DHT22;3114;48.362;10.994;2023-05-14T06:13:03;12.80;99.90
6164;DHT22;3114;48.362;10.994;2023-05-14T06:15:31;12.70;99.90
6164;DHT22;3114;48.362;10.994;2023-05-14T06:17:58;12.80;99.90
6164;DHT22;3114;48.362;10.994;2023-05-14T06:20:25;12.70;99.90
6164;DHT22;3114;48.362;10.994;2023-05-14T06:22:52;12.80;99.90
6164;DHT22;3114;48.362;10.994;2023-05-14T06:25:19;12.90;99.90
6164;DHT22;3114;48.362;10.994;2023-05-14T06:27:45;12.90;99.90
6164;DHT22;3114;48.362;10.994;2023-05-14T06:30:14;12.80;99.90
6164;DHT22;3114;48.362;10.994;2023-05-14T06:32:41;12.80;99.90
6164;DHT22;3114;48.362;10.994;2023-05-14T06:35:08;13.00;99.90
6164;DHT22;3114;48.362;10.994;2023-05-14T06:37:35;13.00;99.90
6164;DHT22;3114;48.362;10.994;2023-05-14T06:40:04;12.90;99.90
6164;DHT22;3114;48.362;10.994;2023-05-14T06:42:31;12.90;99.90
6164;DHT22;3114;48.362;10.994;2023-05-14T06:44:58;12.90;99.90
6164;DHT22;3114;48.362;10.994;2023-05-14T06:47:26;12.90;99.90
6164;DHT22;3114;48.362;10.994;2023-05-14T06:49:53;12.90;99.90
6164;DHT22;3114;48.362;10.994;2023-05-14T06:52:20;13.00;99.90
6164;DHT22;3114;48.362;10.994;2023-05-14T06:54:47;12.90;99.90
6164;DHT22;3114;48.362;10.994;2023-05-14T06:57:14;12.80;99.90
6164;DHT22;3114;48.362;10.994;2023-05-14T06:59:41;12.80;99.90
6164;DHT22;3114;48.362;10.994;2023-05-14T07:02:08;12.90;99.90
6164;DHT22;3114;48.362;10.994;2023-05-14T07:04:36;12.80;99.90
6164;DHT22;3114;48.362;10.994;2023-05-14T07:07:03;12.90;99.90
6164;DHT22;3114;48.362;10.994;2023-05-14T07:09:30;12.90;99.90
6164;DHT22;3114;48.362;10.994;2023-05-14T07:11:57;13.00;99.90
6164;DHT22;3114;48.362;10.994;2023-05-14T07:14:24;13.10;99.90
6164;DHT22;3114;48.362;10.994;2023-05-14T07:16:51;13.00;99.90
6164;DHT22;3114;48.362;10.994;2023-05-14T07:19:18;13.10;99.90
6164;DHT22;3114;48.362;10.994;2023-05-14T07:21:49;13.00;99.90
6164;DHT22;3114;48.362;10.994;2023-05-14T07:24:17;12.90;99.90
6164;DHT22;3114;48.362;10.994;2023-05-14T07:26:44;13.10;99.90
6164;DHT22;3114;48.362;10.994;2023-05-14T07:29:11;13.10;99.90
6164;DHT22;3114;48.362;10.994;2023-05-14T07:31:38;13.10;99.90
6164;DHT22;3114;48.362;10.994;2023-05-14T07:34:05;13.20;99.90
6164;DHT22;3114;48.362;10.994;2023-05-14T07:36:33;13.30;99.90
6164;DHT22;3114;48.362;10.994;2023-05-14T07:39:01;13.30;99.90
6164;DHT22;3114;48.362;10.994;2023-05-14T07:41:28;13.20;99.90
6164;DHT22;3114;48.362;10.994;2023-05-14T07:43:55;13.20;99.90
6164;DHT22;3114;48.362;10.994;2023-05-14T07:46:22;13.30;99.90
6164;DHT22;3114;48.362;10.994;2023-05-14T07:48:50;13.30;99.90
6164;DHT22;3114;48.362;10.994;2023-05-14T07:51:17;13.20;99.90
6164;DHT22;3114;48.362;10.994;2023-05-14T07:53:44;13.10;99.90
6164;DHT22;3114;48.362;10.994;2023-05-14T07:56:12;12.90;99.90
6164;DHT22;3114;48.362;10.994;2023-05-14T07:58:39;12.80;99.90
6164;DHT22;3114;48.362;10.994;2023-05-14T08:01:06;12.90;99.90
6164;DHT22;3114;48.362;10.994;2023-05-14T08:03:33;13.10;99.90
6164;DHT22;3114;48.362;10.994;2023-05-14T08:06:00;13.00;99.90
6164;DHT22;3114;48.362;10.994;2023-05-14T08:08:28;13.00;99.90
6164;DHT22;3114;48.362;10.994;2023-05-14T08:10:55;13.00;99.90
6164;DHT22;3114;48.362;10.994;2023-05-14T08:13:23;13.40;99.90
6164;DHT22;3114;48.362;10.994;2023-05-14T08:15:50;13.60;99.90
6164;DHT22;3114;48.362;10.994;2023-05-14T08:18:17;13.60;99.90
6164;DHT22;3114;48.362;10.994;2023-05-14T08:20:44;13.50;99.90
6164;DHT22;3114;48.362;10.994;2023-05-14T08:23:11;13.50;99.90
6164;DHT22;3114;48.362;10.994;2023-05-14T08:25:38;13.60;99.90
6164;DHT22;3114;48.362;10.994;2023-05-14T08:28:06;13.60;99.90
6164;DHT22;3114;48.362;10.994;2023-05-14T08:30:34;13.60;99.90
6164;DHT22;3114;48.362;10.994;2023-05-14T08:33:01;13.40;99.90
6164;DHT22;3114;48.362;10.994;2023-05-14T08:35:28;13.40;99.90
6164;DHT22;3114;48.362;10.994;2023-05-14T08:37:55;13.60;99.90
6164;DHT22;3114;48.362;10.994;2023-05-14T08:40:22;13.90;99.90
6164;DHT22;3114;48.362;10.994;2023-05-14T08:42:50;13.90;99.90
6164;DHT22;3114;48.362;10.994;2023-05-14T08:45:18;14.10;99.90
6164;DHT22;3114;48.362;10.994;2023-05-14T08:47:48;14.40;99.90
6164;DHT22;3114;48.362;10.994;2023-05-14T08:50:16;14.50;99.90
6164;DHT22;3114;48.362;10.994;2023-05-14T08:52:44;14.40;99.90
6164;DHT22;3114;48.362;10.994;2023-05-14T08:55:11;14.60;99.90
6164;DHT22;3114;48.362;10.994;2023-05-14T08:57:39;14.70;99.90
6164;DHT22;3114;48.362;10.994;2023-05-14T09:00:07;14.40;99.90
6164;DHT22;3114;48.362;10.994;2023-05-14T09:02:36;14.30;99.90
6164;DHT22;3114;48.362;10.994;2023-05-14T09:05:07;14.50;99.90
6164;DHT22;3114;48.362;10.994;2023-05-14T09:07:34;14.70;99.90
6164;DHT22;3114;48.362;10.994;2023-05-14T09:10:02;14.70;99.90
6164;DHT22;3114;48.362;10.994;2023-05-14T09:12:29;14.80;99.90
6164;DHT22;3114;48.362;10.994;2023-05-14T09:14:56;14.80;99.90
6164;DHT22;3114;48.362;10.994;2023-05-14T09:17:24;14.90;99.90
6164;DHT22;3114;48.362;10.994;2023-05-14T09:19:52;15.10;99.90
6164;DHT22;3114;48.362;10.994;2023-05-14T09:22:20;15.30;99.90
6164;DHT22;3114;48.362;10.994;2023-05-14T09:25:01;15.40;99.90
6164;DHT22;3114;48.362;10.994;2023-05-14T09:27:29;15.50;99.90
6164;DHT22;3114;48.362;10.994;2023-05-14T09:30:04;15.60;99.90
6164;DHT22;3114;48.362;10.994;2023-05-14T09:32:35;15.50;99.90
6164;DHT22;3114;48.362;10.994;2023-05-14T09:35:12;15.40;99.90
6164;DHT22;3114;48.362;10.994;2023-05-14T09:37:44;15.40;99.90
6164;DHT22;3114;48.362;10.994;2023-05-14T09:40:12;15.30;99.90
6164;DHT22;3114;48.362;10.994;2023-05-14T09:42:39;15.50;99.90
6164;DHT22;3114;48.362;10.994;2023-05-14T09:45:07;15.40;99.90
6164;DHT22;3114;48.362;10.994;2023-05-14T09:47:34;15.40;99.90
6164;DHT22;3114;48.362;10.994;2023-05-14T09:50:01;15.50;99.90
6164;DHT22;3114;48.362;10.994;2023-05-14T09:52:28;15.80;99.90
6164;DHT22;3114;48.362;10.994;2023-05-14T09:54:56;16.00;99.90
6164;DHT22;3114;48.362;10.994;2023-05-14T09:57:23;15.90;99.90
6164;DHT22;3114;48.362;10.994;2023-05-14T09:59:51;16.00;99.90
6164;DHT22;3114;48.362;10.994;2023-05-14T10:02:21;16.20;99.90
6164;DHT22;3114;48.362;10.994;2023-05-14T10:04:49;16.30;99.90
6164;DHT22;3114;48.362;10.994;2023-05-14T10:07:20;16.20;99.90
6164;DHT22;3114;48.362;10.994;2023-05-14T10:09:48;16.30;99.90
6164;DHT22;3114;48.362;10.994;2023-05-14T10:12:21;16.30;99.90
6164;DHT22;3114;48.362;10.994;2023-05-14T10:14:49;16.40;99.90
6164;DHT22;3114;48.362;10.994;2023-05-14T10:17:20;16.00;99.90
6164;DHT22;3114;48.362;10.994;2023-05-14T10:19:51;15.90;99.90
6164;DHT22;3114;48.362;10.994;2023-05-14T10:22:22;15.90;99.90
6164;DHT22;3114;48.362;10.994;2023-05-14T10:24:49;15.90;99.90
6164;DHT22;3114;48.362;10.994;2023-05-14T10:27:19;15.90;99.90
6164;DHT22;3114;48.362;10.994;2023-05-14T10:29:50;15.90;99.90
6164;DHT22;3114;48.362;10.994;2023-05-14T10:32:20;15.90;99.90
6164;DHT22;3114;48.362;10.994;2023-05-14T10:34:47;15.80;99.90
6164;DHT22;3114;48.362;10.994;2023-05-14T10:37:14;15.70;99.90
6164;DHT22;3114;48.362;10.994;2023-05-14T10:39:46;15.70;99.90
6164;DHT22;3114;48.362;10.994;2023-05-14T10:42:16;15.60;99.90
6164;DHT22;3114;48.362;10.994;2023-05-14T10:44:52;15.40;99.90
6164;DHT22;3114;48.362;10.994;2023-05-14T10:47:20;15.40;99.90
6164;DHT22;3114;48.362;10.994;2023-05-14T10:49:47;15.30;99.90
6164;DHT22;3114;48.362;10.994;2023-05-14T10:52:18;15.50;99.90
6164;DHT22;3114;48.362;10.994;2023-05-14T10:54:49;15.60;99.90
6164;DHT22;3114;48.362;10.994;2023-05-14T10:57:17;15.50;99.90
6164;DHT22;3114;48.362;10.994;2023-05-14T10:59:47;15.60;99.90
6164;DHT22;3114;48.362;10.994;2023-05-14T11:02:22;15.70;99.90
6164;DHT22;3114;48.362;10.994;2023-05-14T11:04:57;15.80;99.90
6164;DHT22;3114;48.362;10.994;2023-05-14T11:07:27;16.20;99.90
6164;DHT22;3114;48.362;10.994;2023-05-14T11:10:02;16.70;99.90
6164;DHT22;3114;48.362;10.994;2023-05-14T11:12:30;17.00;99.90
6164;DHT22;3114;48.362;10.994;2023-05-14T11:15:00;17.30;99.90
6164;DHT22;3114;48.362;10.994;2023-05-14T11:17:29;17.40;99.90
6164;DHT22;3114;48.362;10.994;2023-05-14T11:19:57;17.20;99.90
6164;DHT22;3114;48.362;10.994;2023-05-14T11:22:24;16.80;99.90
6164;DHT22;3114;48.362;10.994;2023-05-14T11:24:51;16.60;99.90
6164;DHT22;3114;48.362;10.994;2023-05-14T11:27:19;16.40;99.90
6164;DHT22;3114;48.362;10.994;2023-05-14T11:29:47;16.40;99.90
6164;DHT22;3114;48.362;10.994;2023-05-14T11:32:16;16.20;99.90
6164;DHT22;3114;48.362;10.994;2023-05-14T11:34:44;16.40;99.90
6164;DHT22;3114;48.362;10.994;2023-05-14T11:37:12;16.40;99.90
6164;DHT22;3114;48.362;10.994;2023-05-14T11:39:45;16.70;99.90
6164;DHT22;3114;48.362;10.994;2023-05-14T11:42:12;16.80;99.90
6164;DHT22;3114;48.362;10.994;2023-05-14T11:44:42;16.90;99.90
6164;DHT22;3114;48.362;10.994;2023-05-14T11:47:10;16.90;99.90
6164;DHT22;3114;48.362;10.994;2023-05-14T11:49:38;17.00;99.90
6164;DHT22;3114;48.362;10.994;2023-05-14T11:52:07;17.00;99.90
6164;DHT22;3114;48.362;10.994;2023-05-14T11:54:34;17.00;99.90
6164;DHT22;3114;48.362;10.994;2023-05-14T11:57:03;17.80;99.90
6164;DHT22;3114;48.362;10.994;2023-05-14T11:59:32;18.70;99.90
6164;DHT22;3114;48.362;10.994;2023-05-14T12:02:00;18.50;99.90
6164;DHT22;3114;48.362;10.994;2023-05-14T12:04:27;18.40;99.90
6164;DHT22;3114;48.362;10.994;2023-05-14T12:06:58;20.00;99.90
6164;DHT22;3114;48.362;10.994;2023-05-14T12:09:26;24.60;99.90
6164;DHT22;3114;48.362;10.994;2023-05-14T12:11:52;26.20;99.90
6164;DHT22;3114;48.362;10.994;2023-05-14T12:14:21;25.90;99.90
6164;DHT22;3114;48.362;10.994;2023-05-14T12:16:48;24.20;99.90
6164;DHT22;3114;48.362;10.994;2023-05-14T12:19:16;22.90;99.90
6164;DHT22;3114;48.362;10.994;2023-05-14T12:21:45;22.30;99.90
6164;DHT22;3114;48.362;10.994;2023-05-14T12:24:16;21.70;99.90
6164;DHT22;3114;48.362;10.994;2023-05-14T12:26:44;20.30;99.90
6164;DHT22;3114;48.362;10.994;2023-05-14T12:29:12;19.60;99.90
6164;DHT22;3114;48.362;10.994;2023-05-14T12:31:44;19.10;99.90
6164;DHT22;3114;48.362;10.994;2023-05-14T12:34:12;20.00;99.90
6164;DHT22;3114;48.362;10.994;2023-05-14T12:36:39;22.50;99.90
6164;DHT22;3114;48.362;10.994;2023-05-14T12:39:09;25.10;99.90
6164;DHT22;3114;48.362;10.994;2023-05-14T12:41:38;26.90;99.90
6164;DHT22;3114;48.362;10.994;2023-05-14T12:44:05;26.80;99.90
6164;DHT22;3114;48.362;10.994;2023-05-14T12:46:32;25.70;99.90
6164;DHT22;3114;48.362;10.994;2023-05-14T12:48:59;24.30;99.90
6164;DHT22;3114;48.362;10.994;2023-05-14T12:51:27;22.80;99.90
6164;DHT22;3114;48.362;10.994;2023-05-14T12:53:54;22.90;99.90
6164;DHT22;3114;48.362;10.994;2023-05-14T12:56:21;25.10;99.90
6164;DHT22;3114;48.362;10.994;2023-05-14T12:58:54;25.30;99.90
6164;DHT22;3114;48.362;10.994;2023-05-14T13:01:21;23.60;99.90
6164;DHT22;3114;48.362;10.994;2023-05-14T13:03:48;22.70;99.90
6164;DHT22;3114;48.362;10.994;2023-05-14T13:06:15;21.90;99.90
6164;DHT22;3114;48.362;10.994;2023-05-14T13:08:42;21.30;99.90
6164;DHT22;3114;48.362;10.994;2023-05-14T13:11:09;21.00;99.90
6164;DHT22;3114;48.362;10.994;2023-05-14T13:13:36;20.50;99.90
6164;DHT22;3114;48.362;10.994;2023-05-14T13:16:05;20.10;99.90
6164;DHT22;3114;48.362;10.994;2023-05-14T13:18:32;20.10;99.90
6164;DHT22;3114;48.362;10.994;2023-05-14T13:20:58;20.50;99.90
6164;DHT22;3114;48.362;10.994;2023-05-14T13:23:28;21.00;99.90
6164;DHT22;3114;48.362;10.994;2023-05-14T13:25:55;22.20;99.90
6164;DHT22;3114;48.362;10.994;2023-05-14T13:28:22;24.40;99.90
6164;DHT22;3114;48.362;10.994;2023-05-14T13:31:04;24.80;99.90
6164;DHT22;3114;48.362;10.994;2023-05-14T13:33:33;24.10;99.90
6164;DHT22;3114;48.362;10.994;2023-05-14T13:36:00;23.40;99.90
6164;DHT22;3114;48.362;10.994;2023-05-14T13:38:27;22.10;99.90
6164;DHT22;3114;48.362;10.994;2023-05-14T13:40:54;20.90;99.90
6164;DHT22;3114;48.362;10.994;2023-05-14T13:43:22;19.70;99.90
6164;DHT22;3114;48.362;10.994;2023-05-14T13:45:49;19.40;99.90
6164;DHT22;3114;48.362;10.994;2023-05-14T13:48:17;19.00;99.90
6164;DHT22;3114;48.362;10.994;2023-05-14T13:50:45;18.90;99.90
6164;DHT22;3114;48.362;10.994;2023-05-14T13:53:12;20.20;99.90
6164;DHT22;3114;48.362;10.994;2023-05-14T13:55:39;21.00;99.90
6164;DHT22;3114;48.362;10.994;2023-05-14T13:58:06;21.30;99.90
6164;DHT22;3114;48.362;10.994;2023-05-14T14:00:37;23.90;99.90
6164;DHT22;3114;48.362;10.994;2023-05-14T14:03:04;23.40;99.90
6164;DHT22;3114;48.362;10.994;2023-05-14T14:05:33;22.30;99.90
6164;DHT22;3114;48.362;10.994;2023-05-14T14:08:00;25.20;99.90
6164;DHT22;3114;48.362;10.994;2023-05-14T14:10:27;28.50;99.90
6164;DHT22;3114;48.362;10.994;2023-05-14T14:12:54;28.00;99.90
6164;DHT22;3114;48.362;10.994;2023-05-14T14:15:21;25.00;99.90
6164;DHT22;3114;48.362;10.994;2023-05-14T14:17:48;23.50;99.90
6164;DHT22;3114;48.362;10.994;2023-05-14T14:20:15;22.90;99.90
6164;DHT22;3114;48.362;10.994;2023-05-14T14:22:43;21.90;99.90
6164;DHT22;3114;48.362;10.994;2023-05-14T14:25:10;21.80;99.90
6164;DHT22;3114;48.362;10.994;2023-05-14T14:27:38;21.90;99.90
6164;DHT22;3114;48.362;10.994;2023-05-14T14:30:06;21.80;99.90
6164;DHT22;3114;48.362;10.994;2023-05-14T14:32:34;21.50;99.90
6164;DHT22;3114;48.362;10.994;2023-05-14T14:35:01;21.10;99.90
6164;DHT22;3114;48.362;10.994;2023-05-14T14:37:28;21.10;99.90
6164;DHT22;3114;48.362;10.994;2023-05-14T14:39:56;21.30;99.90
6164;DHT22;3114;48.362;10.994;2023-05-14T14:42:23;21.00;99.90
6164;DHT22;3114;48.362;10.994;2023-05-14T14:44:49;21.20;99.90
6164;DHT22;3114;48.362;10.994;2023-05-14T14:47:16;21.60;99.90
6164;DHT22;3114;48.362;10.994;2023-05-14T14:49:43;21.40;99.90
6164;DHT22;3114;48.362;10.994;2023-05-14T14:52:10;20.90;99.90
6164;DHT22;3114;48.362;10.994;2023-05-14T14:54:37;20.50;99.90
6164;DHT22;3114;48.362;10.994;2023-05-14T14:57:05;20.10;99.90
6164;DHT22;3114;48.362;10.994;2023-05-14T14:59:34;19.90;99.90
6164;DHT22;3114;48.362;10.994;2023-05-14T15:02:01;20.00;99.90
6164;DHT22;3114;48.362;10.994;2023-05-14T15:04:28;19.60;99.90
6164;DHT22;3114;48.362;10.994;2023-05-14T15:06:57;19.30;99.90
6164;DHT22;3114;48.362;10.994;2023-05-14T15:09:24;19.50;99.90
6164;DHT22;3114;48.362;10.994;2023-05-14T15:11:51;19.90;99.90
6164;DHT22;3114;48.362;10.994;2023-05-14T15:14:19;20.40;99.90
6164;DHT22;3114;48.362;10.994;2023-05-14T15:16:46;20.50;99.90
6164;DHT22;3114;48.362;10.994;2023-05-14T15:19:12;20.40;99.90
6164;DHT22;3114;48.362;10.994;2023-05-14T15:21:40;20.50;99.90
6164;DHT22;3114;48.362;10.994;2023-05-14T15:24:10;20.40;99.90
6164;DHT22;3114;48.362;10.994;2023-05-14T15:26:37;19.90;99.90
6164;DHT22;3114;48.362;10.994;2023-05-14T15:29:04;19.80;99.90
6164;DHT22;3114;48.362;10.994;2023-05-14T15:31:33;20.10;99.90
6164;DHT22;3114;48.362;10.994;2023-05-14T15:34:00;20.50;99.90
6164;DHT22;3114;48.362;10.994;2023-05-14T15:36:28;20.50;99.90
6164;DHT22;3114;48.362;10.994;2023-05-14T15:38:55;20.40;99.90
6164;DHT22;3114;48.362;10.994;2023-05-14T15:41:22;20.00;99.90
6164;DHT22;3114;48.362;10.994;2023-05-14T15:43:50;19.80;99.90
6164;DHT22;3114;48.362;10.994;2023-05-14T15:46:17;19.50;99.90
6164;DHT22;3114;48.362;10.994;2023-05-14T15:48:45;19.30;99.90